createdAt,value
2018-10-02T00:01:50.644Z,16.83
2018-10-02T00:04:21.449Z,16.17
2018-10-02T00:06:52.316Z,17.67
2018-10-02T00:09:23.184Z,16.00
2018-10-02T00:11:58.836Z,18.47
2018-10-02T00:14:30.802Z,21.33
2018-10-02T00:17:01.357Z,17.00
2018-10-02T00:19:31.894Z,17.80
2018-10-02T00:22:02.532Z,18.53
2018-10-02T00:24:33.373Z,11.70
2018-10-02T00:27:04.127Z,14.53
2018-10-02T00:29:34.859Z,12.87
2018-10-02T00:32:05.561Z,11.47
2018-10-02T00:34:36.492Z,11.13
2018-10-02T00:37:07.150Z,12.93
2018-10-02T00:39:37.892Z,11.97
2018-10-02T00:42:08.514Z,12.13
2018-10-02T00:44:39.477Z,12.03
2018-10-02T00:47:10.414Z,16.00
2018-10-02T00:49:41.188Z,19.70
2018-10-02T00:52:11.861Z,12.93
2018-10-02T00:54:42.491Z,8.30
2018-10-02T00:57:13.028Z,9.30
2018-10-02T00:59:43.827Z,9.90
2018-10-02T01:02:14.488Z,8.07
2018-10-02T01:04:44.971Z,9.73
2018-10-02T01:07:15.862Z,9.37
2018-10-02T01:09:46.492Z,6.53
2018-10-02T01:12:17.119Z,6.43
2018-10-02T01:14:48.215Z,9.10
2018-10-02T01:17:18.784Z,6.03
2018-10-02T01:19:49.717Z,6.60
2018-10-02T01:22:20.414Z,5.70
2018-10-02T01:24:51.053Z,8.17
2018-10-02T01:27:21.894Z,13.60
2018-10-02T01:29:52.552Z,7.90
2018-10-02T01:32:23.119Z,8.07
2018-10-02T01:34:53.729Z,9.30
2018-10-02T01:37:24.560Z,8.93
2018-10-02T01:39:55.149Z,6.97
2018-10-02T01:42:26.364Z,13.03
2018-10-02T01:44:57.035Z,7.13
2018-10-02T01:47:27.825Z,6.03
2018-10-02T01:49:58.585Z,8.70
2018-10-02T01:52:29.331Z,9.20
2018-10-02T01:55:00.006Z,10.03
2018-10-02T01:57:30.593Z,9.23
2018-10-02T02:00:01.244Z,10.50
2018-10-02T02:02:32.070Z,11.30
2018-10-02T02:05:02.701Z,11.67
2018-10-02T02:07:33.730Z,10.70
2018-10-02T02:10:04.608Z,10.20
2018-10-02T02:12:35.713Z,10.33
2018-10-02T02:15:06.338Z,10.57
2018-10-02T02:17:37.250Z,10.73
2018-10-02T02:20:07.755Z,9.37
2018-10-02T02:22:38.515Z,7.80
2018-10-02T02:25:09.300Z,12.43
2018-10-02T02:27:39.939Z,10.13
2018-10-02T02:30:10.751Z,7.03
2018-10-02T02:32:41.431Z,8.53
2018-10-02T02:35:12.240Z,9.07
2018-10-02T02:37:43.074Z,8.10
2018-10-02T02:40:14.190Z,7.93
2018-10-02T02:42:44.704Z,9.13
2018-10-02T02:45:15.429Z,9.00
2018-10-02T02:47:51.167Z,10.38
2018-10-02T02:50:26.859Z,9.53
2018-10-02T02:53:00.650Z,10.60
2018-10-02T02:55:31.547Z,11.88
2018-10-02T02:58:02.385Z,11.50
2018-10-02T03:00:33.257Z,10.67
2018-10-02T03:03:03.852Z,12.33
2018-10-02T03:05:34.540Z,14.50
2018-10-02T03:08:05.245Z,14.43
2018-10-02T03:10:36.454Z,10.00
2018-10-02T03:13:07.452Z,18.57
2018-10-02T03:15:38.255Z,15.07
2018-10-02T03:18:08.946Z,15.63
2018-10-02T03:20:39.834Z,10.03
2018-10-02T03:23:10.469Z,13.90
2018-10-02T03:25:41.171Z,13.17
2018-10-02T03:28:11.931Z,11.70
2018-10-02T03:30:42.549Z,12.20
2018-10-02T03:33:13.215Z,18.13
2018-10-02T03:35:44.160Z,15.17
2018-10-02T03:38:14.783Z,19.40
2018-10-02T03:40:45.511Z,21.73
2018-10-02T03:43:16.114Z,18.13
2018-10-02T03:45:47.142Z,19.67
2018-10-02T03:48:17.764Z,16.50
2018-10-02T03:50:48.447Z,21.43
2018-10-02T03:53:19.384Z,17.23
2018-10-02T03:55:49.965Z,18.50
2018-10-02T03:58:20.964Z,18.47
2018-10-02T04:00:51.839Z,28.13
2018-10-02T04:03:22.596Z,32.97
2018-10-02T04:05:53.464Z,29.40
2018-10-02T04:08:24.302Z,30.07
2018-10-02T04:10:54.844Z,41.90
2018-10-02T04:13:25.652Z,48.27
2018-10-02T04:15:56.347Z,29.10
2018-10-02T04:18:27.042Z,22.40
2018-10-02T04:20:58.037Z,13.83
2018-10-02T04:23:28.803Z,15.18
2018-10-02T04:25:59.468Z,28.50
2018-10-02T04:28:30.197Z,31.73
2018-10-02T04:31:00.938Z,29.33
2018-10-02T04:33:31.538Z,27.00
2018-10-02T04:36:02.187Z,30.13
2018-10-02T04:38:32.978Z,32.23
2018-10-02T04:41:03.691Z,32.20
2018-10-02T04:43:34.303Z,29.10
2018-10-02T04:46:04.995Z,25.70
2018-10-02T04:48:35.989Z,26.07
2018-10-02T04:51:06.611Z,27.20
2018-10-02T04:53:37.444Z,29.73
2018-10-02T04:56:08.261Z,28.63
2018-10-02T04:58:38.727Z,28.07
2018-10-02T05:01:09.659Z,26.70
2018-10-02T05:03:40.661Z,31.47
2018-10-02T05:06:11.834Z,28.87
2018-10-02T05:08:42.435Z,25.13
2018-10-02T05:11:13.263Z,29.63
2018-10-02T05:13:44.131Z,30.83
2018-10-02T05:16:15.026Z,34.87
2018-10-02T05:18:45.719Z,25.07
2018-10-02T05:21:16.329Z,24.67
2018-10-02T05:23:47.087Z,27.97
2018-10-02T05:26:17.749Z,27.17
2018-10-02T05:28:48.542Z,32.33
2018-10-02T05:31:19.202Z,29.73
2018-10-02T05:33:50.131Z,34.00
2018-10-02T05:36:20.791Z,33.00
2018-10-02T05:38:51.633Z,43.63
2018-10-02T05:41:22.730Z,45.98
2018-10-02T05:43:53.273Z,32.80
2018-10-02T05:46:24.244Z,34.27
2018-10-02T05:48:55.214Z,30.13
2018-10-02T05:51:26.105Z,31.77
2018-10-02T05:53:56.744Z,30.40
2018-10-02T05:56:27.319Z,29.30
2018-10-02T05:58:58.593Z,30.07
2018-10-02T06:01:29.474Z,25.90
2018-10-02T06:04:00.165Z,36.80
2018-10-02T06:06:30.689Z,33.47
2018-10-02T06:09:01.519Z,25.97
2018-10-02T06:11:32.626Z,31.97
2018-10-02T06:14:03.386Z,34.43
2018-10-02T06:16:34.093Z,34.47
2018-10-02T06:19:05.129Z,32.13
2018-10-02T06:21:35.937Z,43.03
2018-10-02T06:24:06.773Z,37.60
2018-10-02T06:26:37.302Z,37.07
2018-10-02T06:29:08.134Z,42.10
2018-10-02T06:31:38.723Z,39.60
2018-10-02T06:34:09.539Z,45.03
2018-10-02T06:36:40.345Z,41.57
2018-10-02T06:39:13.309Z,40.50
2018-10-02T06:41:47.489Z,40.67
2018-10-02T06:44:18.379Z,35.33
2018-10-02T06:46:59.833Z,40.07
2018-10-02T06:49:30.837Z,31.07
2018-10-02T06:52:04.640Z,39.63
2018-10-02T06:54:35.340Z,24.47
2018-10-02T06:57:07.735Z,27.60
2018-10-02T06:59:38.788Z,30.00
2018-10-02T07:02:11.792Z,23.00
2018-10-02T07:04:47.404Z,20.73
2018-10-02T07:07:28.760Z,26.93
2018-10-02T07:10:14.731Z,25.43
2018-10-02T07:13:01.462Z,17.70
2018-10-02T07:15:58.913Z,31.93
2018-10-02T07:18:33.633Z,20.83
2018-10-02T07:21:32.689Z,24.43
2018-10-02T07:24:19.114Z,14.30
2018-10-02T07:26:54.824Z,18.40
2018-10-02T07:29:27.833Z,24.50
2018-10-02T07:32:00.925Z,15.93
2018-10-02T07:34:32.485Z,14.70
2018-10-02T07:37:04.727Z,14.87
2018-10-02T07:39:37.716Z,28.27
2018-10-02T07:42:11.143Z,15.97
2018-10-02T07:44:42.408Z,13.77
2018-10-02T07:47:14.107Z,14.40
2018-10-02T07:49:45.047Z,15.70
2018-10-02T07:52:15.669Z,22.87
2018-10-02T07:54:46.405Z,20.30
2018-10-02T07:57:17.092Z,17.97
2018-10-02T07:59:48.967Z,10.47
2018-10-02T08:02:19.886Z,13.57
2018-10-02T08:04:50.728Z,26.13
2018-10-02T08:07:21.476Z,29.63
2018-10-02T08:09:52.171Z,27.37
2018-10-02T08:12:23.065Z,16.03
2018-10-02T08:14:53.703Z,15.93
2018-10-02T08:17:24.388Z,18.17
2018-10-02T08:19:55.245Z,15.60
2018-10-02T08:22:25.845Z,11.30
2018-10-02T08:24:56.619Z,11.60
2018-10-02T08:27:27.391Z,8.93
2018-10-02T08:29:58.196Z,26.33
2018-10-02T08:32:29.039Z,8.40
2018-10-02T08:34:59.822Z,9.57
2018-10-02T08:37:30.559Z,24.23
2018-10-02T08:40:01.449Z,10.80
2018-10-02T08:42:32.582Z,21.57
2018-10-02T08:45:03.242Z,17.00
2018-10-02T08:47:34.748Z,23.03
2018-10-02T08:50:05.428Z,11.07
2018-10-02T08:52:36.097Z,19.17
2018-10-02T08:55:07.158Z,26.03
2018-10-02T08:57:37.984Z,19.90
2018-10-02T09:00:09.003Z,15.33
2018-10-02T10:50:39.040Z,8.27
2018-10-02T10:53:13.019Z,6.30
2018-10-02T10:55:46.647Z,11.60
2018-10-02T10:58:18.518Z,11.63
2018-10-02T11:00:50.273Z,6.07
2018-10-02T11:03:21.789Z,22.13
2018-10-02T11:05:53.707Z,6.17
2018-10-02T11:08:26.052Z,14.30
2018-10-02T11:10:56.394Z,3.30
2018-10-02T11:13:27.466Z,6.23
2018-10-02T11:16:00.950Z,6.07
2018-10-02T11:18:33.745Z,7.93
2018-10-02T11:21:04.963Z,4.63
2018-10-02T11:23:38.222Z,3.90
2018-10-02T11:26:10.405Z,4.50
2018-10-02T11:28:41.087Z,7.07
2018-10-02T11:31:12.343Z,6.53
2018-10-02T11:33:42.948Z,11.50
2018-10-02T12:04:59.410Z,7.20
2018-10-02T12:07:30.279Z,9.30
2018-10-02T12:10:01.310Z,5.67
2018-10-02T12:12:32.016Z,7.37
2018-10-02T12:26:51.930Z,29.50
2018-10-02T12:29:22.275Z,10.57
2018-10-02T12:31:52.798Z,9.73
2018-10-02T12:34:23.209Z,5.80
2018-10-02T12:36:53.423Z,7.63
2018-10-02T12:39:23.774Z,7.03
2018-10-02T12:41:54.312Z,7.53
2018-10-02T12:44:24.934Z,8.47
2018-10-02T12:46:55.357Z,11.83
2018-10-02T12:49:25.560Z,12.80
2018-10-02T12:51:55.978Z,10.47
2018-10-02T12:54:26.527Z,13.03
2018-10-02T12:56:56.852Z,9.20
2018-10-02T12:59:27.281Z,13.87
2018-10-02T13:01:57.448Z,11.33
2018-10-02T13:04:27.974Z,9.13
2018-10-02T13:06:59.251Z,7.80
2018-10-02T13:09:29.563Z,7.63
2018-10-02T13:12:00.021Z,8.93
2018-10-02T13:14:30.340Z,9.03
2018-10-02T13:17:00.673Z,8.63
2018-10-02T13:19:33.416Z,9.00
2018-10-02T13:22:04.496Z,10.00
2018-10-02T13:24:35.082Z,22.40
2018-10-02T13:27:05.557Z,9.60
2018-10-02T13:29:36.803Z,9.97
2018-10-02T13:32:07.309Z,11.57
2018-10-02T13:34:37.945Z,7.47
2018-10-02T13:37:08.434Z,7.67
2018-10-02T13:39:38.880Z,10.60
2018-10-02T13:42:09.604Z,14.87
2018-10-02T13:44:40.106Z,16.27
2018-10-02T13:47:11.230Z,8.33
2018-10-02T13:49:42.297Z,14.80
2018-10-02T13:52:13.178Z,15.30
2018-10-02T13:54:43.616Z,18.40
2018-10-02T13:57:13.942Z,31.53
2018-10-02T13:59:44.312Z,37.40
2018-10-02T14:02:15.057Z,27.30
2018-10-02T14:04:45.433Z,30.90
2018-10-02T14:07:15.911Z,32.30
2018-10-02T14:09:46.304Z,27.77
2018-10-02T14:12:16.996Z,25.90
2018-10-02T14:14:47.561Z,33.23
2018-10-02T14:17:18.139Z,26.43
2018-10-02T14:19:48.618Z,21.60
2018-10-02T14:22:19.105Z,18.47
2018-10-02T14:24:49.592Z,10.67
2018-10-02T14:27:20.048Z,16.07
2018-10-02T14:29:50.318Z,18.43
2018-10-02T14:32:20.647Z,13.63
2018-10-02T14:34:51.013Z,16.83
2018-10-02T14:37:21.767Z,17.67
2018-10-02T14:39:52.565Z,10.23
2018-10-02T14:42:22.971Z,21.03
2018-10-02T14:44:53.280Z,9.93
2018-10-02T14:47:23.632Z,18.43
2018-10-02T14:49:54.246Z,16.67
2018-10-02T14:52:24.597Z,13.67
2018-10-02T14:54:54.881Z,14.00
2018-10-02T14:57:25.670Z,17.83
2018-10-02T14:59:55.952Z,15.73
2018-10-02T15:02:26.361Z,14.80
2018-10-02T15:04:56.710Z,16.93
2018-10-02T15:07:27.152Z,23.60
2018-10-02T15:09:57.996Z,28.50
2018-10-02T15:12:28.425Z,32.73
2018-10-02T15:14:58.734Z,28.03
2018-10-02T15:17:29.049Z,14.20
2018-10-02T15:19:59.294Z,20.03
2018-10-02T15:22:29.678Z,27.37
2018-10-02T15:25:00.128Z,25.63
2018-10-02T15:27:30.643Z,19.73
2018-10-02T15:30:01.052Z,19.87
2018-10-02T15:32:31.817Z,20.27
2018-10-02T15:35:02.230Z,36.70
2018-10-02T15:37:32.831Z,53.40
2018-10-02T15:40:03.190Z,44.77
2018-10-02T15:42:33.686Z,32.30
2018-10-02T15:45:04.112Z,31.50
2018-10-02T15:47:34.797Z,47.33
2018-10-02T15:50:05.422Z,34.77
2018-10-02T15:52:36.011Z,50.33
2018-10-02T15:55:06.540Z,52.07
2018-10-02T15:57:37.013Z,46.70
2018-10-02T16:00:07.559Z,49.47
2018-10-02T16:02:37.964Z,50.00
2018-10-02T16:05:08.399Z,39.70
2018-10-02T16:07:38.749Z,34.83
2018-10-02T16:10:09.191Z,36.17
2018-10-02T16:12:39.661Z,63.13
2018-10-02T16:15:16.733Z,56.57
2018-10-02T16:17:49.108Z,42.17
2018-10-02T16:20:19.529Z,29.40
2018-10-02T16:22:49.785Z,18.87
2018-10-02T16:25:20.201Z,24.80
2018-10-02T16:27:55.882Z,24.60
2018-10-02T16:30:35.200Z,24.27
2018-10-02T16:33:08.636Z,28.23
2018-10-02T16:35:46.490Z,28.33
2018-10-02T16:38:19.630Z,20.33
2018-10-02T16:40:52.507Z,27.03
2018-10-02T16:43:27.808Z,31.03
2018-10-02T16:46:00.180Z,23.73
2018-10-02T16:48:30.988Z,29.17
2018-10-02T16:51:01.688Z,25.30
2018-10-02T16:53:31.956Z,31.30
2018-10-02T16:56:02.485Z,35.00
2018-10-02T16:58:32.757Z,48.90
2018-10-02T17:01:03.073Z,32.33
2018-10-02T17:03:33.473Z,42.87
2018-10-02T17:06:03.801Z,33.10
2018-10-02T17:08:34.320Z,36.67
2018-10-02T17:11:04.716Z,32.13
2018-10-02T17:13:35.479Z,27.50
2018-10-02T17:16:06.007Z,25.83
2018-10-02T17:18:36.485Z,36.37
2018-10-02T17:21:06.836Z,28.10
2018-10-02T17:23:37.411Z,22.33
2018-10-02T17:26:08.215Z,23.87
2018-10-02T17:28:38.668Z,22.63
2018-10-02T17:31:09.655Z,40.57
2018-10-02T17:33:40.237Z,31.27
2018-10-02T17:36:10.744Z,32.93
2018-10-02T17:38:41.284Z,34.43
2018-10-02T17:41:11.770Z,37.90
2018-10-02T17:43:42.468Z,36.23
2018-10-02T17:46:12.955Z,29.70
2018-10-02T17:48:43.470Z,38.63
2018-10-02T17:51:13.966Z,34.07
2018-10-02T17:53:44.595Z,29.97
2018-10-02T17:56:15.349Z,32.60
2018-10-02T17:58:46.196Z,31.20
2018-10-02T18:01:17.475Z,28.30
2018-10-02T18:03:48.037Z,31.73
2018-10-02T18:06:18.653Z,35.97
2018-10-02T18:08:49.424Z,32.60
2018-10-02T18:11:20.253Z,36.63
2018-10-02T18:13:50.777Z,27.50
2018-10-02T18:16:21.245Z,35.70
2018-10-02T18:18:52.409Z,32.00
2018-10-02T18:21:23.362Z,32.87
2018-10-02T18:23:54.236Z,24.13
2018-10-02T18:26:24.838Z,26.37
2018-10-02T18:28:55.690Z,19.17
2018-10-02T18:31:26.296Z,29.50
2018-10-02T18:33:56.758Z,27.17
2018-10-02T18:36:27.491Z,27.33
2018-10-02T18:38:58.269Z,36.57
2018-10-02T18:41:28.881Z,31.70
2018-10-02T18:44:00.600Z,37.70
2018-10-02T18:46:31.496Z,33.97
2018-10-02T18:49:02.433Z,29.97
2018-10-02T18:51:34.122Z,30.97
2018-10-02T18:54:04.665Z,27.23
2018-10-02T18:56:35.363Z,25.83
2018-10-02T18:59:05.939Z,23.70
2018-10-02T19:01:37.037Z,22.93
2018-10-02T19:04:07.558Z,22.40
2018-10-02T19:06:38.099Z,22.53
2018-10-02T19:09:16.167Z,25.33
2018-10-02T19:11:52.000Z,19.60
2018-10-02T19:14:22.652Z,21.00
2018-10-02T19:16:53.286Z,29.47
2018-10-02T19:19:28.821Z,20.13
2018-10-02T19:21:59.600Z,21.00
2018-10-02T19:24:30.760Z,20.97
2018-10-02T19:27:01.523Z,25.57
2018-10-02T19:29:32.591Z,23.03
2018-10-02T19:32:06.140Z,29.97
2018-10-02T19:34:37.405Z,21.00
2018-10-02T19:37:13.254Z,33.43
2018-10-02T19:39:43.897Z,63.00
2018-10-02T19:42:14.716Z,54.10
2018-10-02T19:44:45.322Z,48.30
2018-10-02T19:47:15.905Z,40.20
2018-10-02T19:49:46.465Z,31.60
2018-10-02T19:52:17.993Z,26.53
2018-10-02T19:54:49.182Z,23.40
2018-10-02T19:57:20.473Z,21.20
2018-10-02T19:59:51.565Z,26.10
2018-10-02T20:02:22.287Z,22.90
2018-10-02T20:04:52.855Z,23.60
2018-10-02T20:07:23.328Z,20.73
2018-10-02T20:09:53.933Z,28.60
2018-10-02T20:12:24.606Z,24.70
2018-10-02T20:14:55.072Z,25.00
2018-10-02T20:17:25.534Z,21.23
2018-10-02T20:19:56.285Z,25.97
2018-10-02T20:22:26.899Z,22.90
2018-10-02T20:24:57.590Z,27.70
2018-10-02T20:27:28.067Z,23.60
2018-10-02T20:29:59.168Z,20.03
2018-10-02T20:32:30.044Z,23.40
2018-10-02T20:35:02.063Z,27.17
2018-10-02T20:37:33.083Z,23.77
2018-10-02T20:40:04.833Z,32.57
2018-10-02T20:42:36.286Z,32.67
2018-10-02T20:45:08.720Z,26.80
2018-10-02T20:47:39.780Z,31.73
2018-10-02T20:50:10.249Z,28.93
2018-10-02T20:52:45.352Z,32.37
2018-10-02T20:55:18.063Z,28.47
2018-10-02T20:57:49.082Z,26.43
2018-10-02T21:00:19.491Z,23.50
2018-10-02T21:02:49.790Z,25.37
2018-10-02T21:05:20.749Z,22.43
2018-10-02T21:07:53.601Z,24.53
2018-10-02T21:10:27.069Z,28.77
2018-10-02T21:13:01.653Z,34.23
2018-10-02T21:15:38.053Z,28.93
2018-10-02T21:18:10.018Z,28.13
2018-10-02T21:20:44.734Z,26.40
2018-10-02T21:23:15.506Z,41.27
2018-10-02T21:25:49.056Z,28.50
2018-10-02T21:28:22.770Z,27.90
2018-10-02T21:30:57.281Z,29.93
2018-10-02T21:33:28.667Z,31.33
2018-10-02T21:35:59.150Z,24.17
2018-10-02T21:38:29.407Z,23.67
2018-10-02T21:40:59.855Z,23.63
2018-10-02T21:43:30.204Z,26.97
2018-10-02T21:46:00.501Z,27.07
2018-10-02T21:48:30.961Z,19.83
2018-10-02T21:51:01.323Z,26.33
2018-10-02T21:53:31.844Z,23.60
2018-10-02T21:56:02.150Z,27.47
2018-10-02T21:58:32.465Z,29.73
2018-10-02T22:01:05.325Z,24.27
2018-10-02T22:03:39.651Z,25.57
2018-10-02T22:06:10.172Z,21.20
2018-10-02T22:08:40.599Z,27.67
2018-10-02T22:11:10.990Z,21.63
2018-10-02T22:13:42.807Z,19.10
2018-10-02T22:16:13.676Z,18.97
2018-10-02T22:18:44.193Z,19.67
2018-10-02T22:21:14.736Z,22.97
2018-10-02T22:23:45.152Z,30.33
2018-10-02T22:26:15.551Z,22.67
2018-10-02T22:28:45.889Z,22.73
2018-10-02T22:31:16.372Z,23.07
2018-10-02T22:33:46.643Z,23.77
2018-10-02T22:36:17.329Z,16.60
2018-10-02T22:38:47.650Z,22.17
2018-10-02T22:41:17.955Z,23.47
2018-10-02T22:43:48.401Z,21.70
2018-10-02T22:46:19.216Z,20.47
2018-10-02T22:48:49.678Z,25.17
2018-10-02T22:51:20.159Z,26.67
2018-10-02T22:53:50.758Z,24.80
2018-10-02T22:56:21.344Z,21.90
2018-10-02T22:58:51.802Z,21.53
2018-10-02T23:01:22.237Z,22.80
2018-10-02T23:03:52.912Z,25.90
2018-10-02T23:06:23.208Z,19.97
2018-10-02T23:08:53.563Z,23.50
2018-10-02T23:11:23.937Z,23.97
2018-10-02T23:13:54.700Z,29.60
2018-10-02T23:16:25.221Z,25.93
2018-10-02T23:18:55.585Z,27.03
2018-10-02T23:21:26.053Z,28.73
2018-10-02T23:23:56.725Z,32.30
2018-10-02T23:26:27.016Z,33.13
2018-10-02T23:28:57.595Z,30.50
2018-10-02T23:31:28.306Z,24.40
2018-10-02T23:33:58.793Z,27.50
2018-10-02T23:36:29.275Z,26.57
2018-10-02T23:38:59.575Z,21.73
2018-10-02T23:41:29.839Z,24.70
2018-10-02T23:44:00.163Z,25.50
2018-10-02T23:46:30.460Z,21.97
2018-10-02T23:49:01.407Z,21.60
2018-10-02T23:51:31.801Z,20.97
2018-10-02T23:54:02.174Z,21.13
2018-10-02T23:56:32.566Z,19.07
2018-10-02T23:59:02.975Z,22.53
